createdAt,value
2023-01-02T00:12:02.186Z,9.18
2023-01-02T00:27:07.176Z,9.18
2023-01-02T00:42:12.190Z,9.18
2023-01-02T00:57:17.176Z,9.18
2023-01-02T01:12:22.189Z,9.18
2023-01-02T01:27:27.192Z,9.18
2023-01-02T01:42:32.171Z,9.25
2023-01-02T01:57:37.207Z,9.25
2023-01-02T02:12:42.193Z,9.18
2023-01-02T02:27:47.142Z,9.18
2023-01-02T02:42:50.191Z,9.25
2023-01-02T02:57:55.204Z,9.25
2023-01-02T03:13:00.181Z,9.25
2023-01-02T03:28:05.177Z,9.25
2023-01-02T03:43:10.163Z,9.25
2023-01-02T03:58:13.167Z,9.25
2023-01-02T04:13:18.138Z,9.25
2023-01-02T04:28:23.169Z,9.25
2023-01-02T04:43:28.155Z,9.25
2023-01-02T04:58:33.145Z,9.25
2023-01-02T05:13:38.164Z,9.25
2023-01-02T05:28:43.133Z,9.25
2023-01-02T05:43:48.154Z,9.25
2023-01-02T05:58:53.145Z,9.25
2023-01-02T06:13:58.136Z,9.25
2023-01-02T06:29:03.190Z,9.25
2023-01-02T06:44:08.126Z,9.18
2023-01-02T06:59:13.176Z,9.25
2023-01-02T07:14:18.147Z,9.25
2023-01-02T07:29:23.107Z,9.25
2023-01-02T07:44:28.129Z,9.25
2023-01-02T07:59:33.115Z,9.25
2023-01-02T08:14:38.102Z,9.25
2023-01-02T08:29:43.143Z,9.25
2023-01-02T08:44:48.102Z,9.25
2023-01-02T08:59:53.104Z,9.25
2023-01-02T09:14:58.165Z,9.25
2023-01-02T09:30:03.118Z,9.25
2023-01-02T09:45:09.132Z,9.25
2023-01-02T10:00:13.101Z,9.25
2023-01-02T10:15:18.120Z,9.25
2023-01-02T10:30:23.143Z,9.25
2023-01-02T10:45:28.132Z,9.25
2023-01-02T11:00:33.153Z,9.18
2023-01-02T11:15:38.102Z,9.18
2023-01-02T11:30:43.089Z,9.18
2023-01-02T11:45:48.179Z,9.18
2023-01-02T12:00:53.105Z,9.18
2023-01-02T12:15:58.093Z,9.18
2023-01-02T12:31:03.139Z,9.25
2023-01-02T12:46:08.181Z,9.18
2023-01-02T13:01:13.352Z,9.18
2023-01-02T13:16:25.375Z,9.18
2023-01-02T13:31:47.431Z,9.18
2023-01-02T13:46:53.492Z,9.12
2023-01-02T14:01:33.352Z,9.12
2023-01-02T14:16:38.095Z,9.12
2023-01-02T14:31:43.080Z,9.06
2023-01-02T14:46:48.146Z,9.06
2023-01-02T15:01:53.183Z,9.06
2023-01-02T15:16:58.142Z,9
2023-01-02T15:32:03.063Z,9
2023-01-02T15:47:08.139Z,8.93
2023-01-02T16:02:19.062Z,8.93
2023-01-02T16:17:18.114Z,8.87
2023-01-02T16:32:23.099Z,8.87
2023-01-02T16:47:28.107Z,8.81
2023-01-02T17:02:33.213Z,8.81
2023-01-02T17:17:38.119Z,8.75
2023-01-02T17:32:43.096Z,8.75
2023-01-02T17:48:02.191Z,8.68
2023-01-02T18:02:53.310Z,8.62
2023-01-02T18:17:58.110Z,8.56
2023-01-02T18:33:03.091Z,8.5
2023-01-02T18:48:08.111Z,8.43
2023-01-02T19:03:13.118Z,8.37
2023-01-02T19:18:18.146Z,8.31
2023-01-02T19:33:23.095Z,8.31
2023-01-02T19:48:28.103Z,8.25
2023-01-02T20:03:33.152Z,8.25
2023-01-02T20:18:36.116Z,8.25
2023-01-02T20:33:41.135Z,8.25
2023-01-02T20:48:46.155Z,8.25
2023-01-02T21:03:51.183Z,8.18
2023-01-02T21:18:56.122Z,8.18
2023-01-02T21:49:06.216Z,8.18
2023-01-02T22:04:11.205Z,8.12
2023-01-02T22:19:16.127Z,8.06
2023-01-02T22:34:21.138Z,8.06
2023-01-02T22:49:26.160Z,8
2023-01-02T23:04:31.151Z,8
2023-01-02T23:19:36.117Z,7.93
2023-01-02T23:34:41.110Z,7.869999999999999
2023-01-02T23:49:46.167Z,7.869999999999999
